Time;durP1;ratioP1;P1;durP2;ratioP2;P2;SDS_P1;SDS_P2;PMS_P1;PMS_P2;Temp;Humidity;BMP_temperature;BMP_pressure;BME280_temperature;BME280_humidity;BME280_pressure;Samples;Min_cycle;Max_cycle;Signal;HPM_P1;HPM_P2
2023/12/22 00:00:43;;;;;;;;;;;;;;;6.60;78.63;96849.81;4402179;32;34782;-91
2023/12/22 00:03:14;;;;;;;;;;;;;;;6.92;77.65;96831.47;4405063;32;32040;-94
2023/12/22 00:05:41;;;;;;;;;;;;;;;6.99;77.70;96837.41;4403320;32;33144;-92
2023/12/22 00:08:11;;;;;;;;;;;;;;;6.54;79.54;96832.69;4414823;32;32687;-93
2023/12/22 00:10:40;;;;;;;;;;;;;;;7.26;76.96;96847.41;4389428;32;33282;-92
2023/12/22 00:13:08;;;;;;;;;;;;;;;7.52;75.69;96841.09;4402522;32;33021;-90
2023/12/22 00:15:55;;;;;;;;;;;;;;;7.52;76.03;96848.81;4385205;32;32455;-92
2023/12/22 00:18:23;;;;;;;;;;;;;;;7.09;77.90;96864.78;4391758;32;33446;-92
2023/12/22 00:20:51;;;;;;;;;;;;;;;6.86;79.53;96854.72;4388913;32;33777;-93
2023/12/22 00:23:18;;;;;;;;;;;;;;;7.27;76.99;96859.44;4390224;32;33086;-95
2023/12/22 00:25:47;;;;;;;;;;;;;;;6.90;79.02;96863.28;4391043;32;33482;-93
2023/12/22 00:28:14;;;;;;;;;;;;;;;7.20;77.77;96875.84;4406356;32;35549;-91
2023/12/22 00:31:01;;;;;;;;;;;;;;;7.21;78.37;96880.12;4422756;32;34074;-94
2023/12/22 00:33:30;;;;;;;;;;;;;;;6.92;79.29;96898.44;4422187;32;33437;-96
2023/12/22 00:36:18;;;;;;;;;;;;;;;7.36;77.93;96894.56;4420432;32;34089;-96
2023/12/22 00:38:46;;;;;;;;;;;;;;;7.12;79.28;96899.97;4422126;32;34199;-96
2023/12/22 00:41:13;;;;;;;;;;;;;;;6.98;80.72;96906.13;4414156;32;35681;-95
2023/12/22 00:43:41;;;;;;;;;;;;;;;6.95;80.81;96902.72;4417260;32;33205;-96
2023/12/22 00:46:29;;;;;;;;;;;;;;;6.85;81.85;96883.03;4407052;32;32733;-92
2023/12/22 00:48:56;;;;;;;;;;;;;;;7.25;80.08;96896.41;4407055;32;33982;-94
2023/12/22 00:51:24;;;;;;;;;;;;;;;7.07;81.03;96897.44;4429314;32;34705;-96
2023/12/22 00:53:52;;;;;;;;;;;;;;;6.87;81.84;96887.31;4410915;32;32860;-95
2023/12/22 00:56:19;;;;;;;;;;;;;;;6.94;81.76;96901.00;4409070;32;34199;-91
2023/12/22 00:58:46;;;;;;;;;;;;;;;6.82;82.46;96922.59;4409015;32;35121;-94
2023/12/22 01:01:24;;;;;;;;;;;;;;;6.96;82.08;96943.91;4425698;32;34600;-95
2023/12/22 01:03:52;;;;;;;;;;;;;;;6.52;84.81;96936.53;4435830;32;34204;-94
2023/12/22 01:06:19;;;;;;;;;;;;;;;6.66;84.56;96924.41;4423919;32;34270;-96
2023/12/22 01:09:06;;;;;;;;;;;;;;;6.49;84.50;96867.91;4435556;32;33648;-93
2023/12/22 01:11:33;;;;;;;;;;;;;;;6.74;83.94;96860.84;4433751;32;34423;-94
2023/12/22 01:14:01;;;;;;;;;;;;;;;6.66;83.31;96854.88;4436719;32;33222;-95
2023/12/22 01:16:29;;;;;;;;;;;;;;;6.51;83.83;96855.88;4427735;32;34134;-96
2023/12/22 01:18:56;;;;;;;;;;;;;;;6.79;83.28;96877.09;4423013;32;34447;-96
2023/12/22 01:21:24;;;;;;;;;;;;;;;7.03;81.41;96895.75;4424168;32;34871;-95
2023/12/22 01:23:52;;;;;;;;;;;;;;;6.50;83.75;96890.19;4412104;32;32784;-93
2023/12/22 01:26:19;;;;;;;;;;;;;;;6.79;82.58;96887.41;4428549;32;34171;-94
2023/12/22 01:29:06;;;;;;;;;;;;;;;6.94;81.51;96888.12;4415307;32;33962;-92
2023/12/22 01:31:34;;;;;;;;;;;;;;;6.51;83.27;96885.91;4438572;32;34801;-94
2023/12/22 01:34:01;;;;;;;;;;;;;;;7.09;81.15;96881.97;4423073;32;34365;-92
2023/12/22 01:36:29;;;;;;;;;;;;;;;6.89;81.08;96879.56;4428077;32;33395;-94
2023/12/22 01:38:56;;;;;;;;;;;;;;;6.47;82.84;96885.06;4425765;32;34189;-95
2023/12/22 01:41:23;;;;;;;;;;;;;;;6.42;82.50;96876.53;4421813;32;34483;-96
2023/12/22 01:43:51;;;;;;;;;;;;;;;6.81;80.60;96889.94;4421083;32;33631;-96
2023/12/22 01:46:38;;;;;;;;;;;;;;;6.85;79.02;96885.63;4419213;32;33242;-96
2023/12/22 01:49:07;;;;;;;;;;;;;;;7.02;78.09;96894.91;4420575;32;34358;-96
2023/12/22 01:51:35;;;;;;;;;;;;;;;7.08;77.73;96904.28;4398200;32;34066;-95
2023/12/22 01:54:02;;;;;;;;;;;;;;;6.56;79.46;96907.34;4430825;32;34021;-95
2023/12/22 01:56:30;;;;;;;;;;;;;;;6.66;78.51;96910.69;4430395;32;33862;-95
2023/12/22 01:58:59;;;;;;;;;;;;;;;7.16;76.56;96907.66;4437095;32;34125;-94
2023/12/22 02:01:27;;;;;;;;;;;;;;;7.10;76.94;96887.09;4433018;32;36130;-95
2023/12/22 02:03:55;;;;;;;;;;;;;;;6.78;77.91;96875.41;4427228;32;32910;-92
2023/12/22 02:06:41;;;;;;;;;;;;;;;6.97;77.19;96875.19;4420459;32;34127;-94
2023/12/22 02:09:08;;;;;;;;;;;;;;;6.65;78.92;96844.63;4432270;32;33895;-93
2023/12/22 02:11:37;;;;;;;;;;;;;;;6.68;78.75;96854.88;4402270;32;35283;-94
2023/12/22 02:14:25;;;;;;;;;;;;;;;7.16;76.61;96825.22;4421176;32;33931;-93
2023/12/22 02:17:00;;;;;;;;;;;;;;;7.31;76.07;96824.16;4421449;32;34148;-94
2023/12/22 02:19:38;;;;;;;;;;;;;;;6.93;76.95;96833.19;4408974;32;34927;-91
2023/12/22 02:22:08;;;;;;;;;;;;;;;7.10;76.67;96827.84;4408380;32;33439;-94
2023/12/22 02:24:37;;;;;;;;;;;;;;;6.85;77.33;96801.47;4408468;32;34347;-94
2023/12/22 02:27:05;;;;;;;;;;;;;;;7.40;75.15;96828.38;4422423;32;33951;-88
2023/12/22 02:29:37;;;;;;;;;;;;;;;7.30;74.50;96832.75;4435778;32;33837;-95
2023/12/22 02:32:44;;;;;;;;;;;;;;;7.32;74.83;96800.09;4422498;32;32949;-90
2023/12/22 02:35:15;;;;;;;;;;;;;;;6.96;75.74;96778.19;4421680;32;33757;-93
2023/12/22 02:37:51;;;;;;;;;;;;;;;7.09;76.27;96818.41;4424352;32;33857;-94
2023/12/22 02:40:19;;;;;;;;;;;;;;;6.89;77.01;96825.50;4423733;32;33958;-93
2023/12/22 02:42:46;;;;;;;;;;;;;;;7.07;75.77;96835.59;4423559;32;33641;-94
2023/12/22 02:45:15;;;;;;;;;;;;;;;7.44;74.50;96861.81;4421505;32;33581;-91
2023/12/22 02:47:42;;;;;;;;;;;;;;;7.38;74.34;96869.59;4420020;32;34920;-95
2023/12/22 02:50:29;;;;;;;;;;;;;;;7.50;73.35;96866.03;4420067;32;33629;-91
2023/12/22 02:52:56;;;;;;;;;;;;;;;7.16;74.98;96866.44;4433348;32;35346;-93
2023/12/22 02:55:25;;;;;;;;;;;;;;;7.22;74.56;96874.09;4430716;32;33411;-92
2023/12/22 02:57:53;;;;;;;;;;;;;;;6.83;75.55;96847.03;4432685;32;34429;-93
2023/12/22 03:00:24;;;;;;;;;;;;;;;6.77;75.71;96835.03;4423908;32;34097;-93
2023/12/22 03:02:52;;;;;;;;;;;;;;;6.51;76.59;96845.56;4436688;32;34234;-93
2023/12/22 03:05:19;;;;;;;;;;;;;;;6.26;78.24;96839.78;4433762;32;32576;-92
2023/12/22 03:08:06;;;;;;;;;;;;;;;6.31;77.40;96832.03;4436968;32;33463;-94
2023/12/22 03:10:38;;;;;;;;;;;;;;;5.94;79.89;96846.84;4421675;32;35183;-91
2023/12/22 03:13:25;;;;;;;;;;;;;;;6.31;78.19;96840.59;4422411;32;33263;-95
2023/12/22 03:15:53;;;;;;;;;;;;;;;6.29;77.68;96855.22;4419992;32;32416;-93
2023/12/22 03:18:21;;;;;;;;;;;;;;;6.34;77.37;96883.47;4408022;32;33989;-95
2023/12/22 03:20:49;;;;;;;;;;;;;;;6.37;77.06;96877.47;4423660;32;33214;-93
2023/12/22 03:23:16;;;;;;;;;;;;;;;6.73;74.72;96861.69;4422715;32;34513;-93
2023/12/22 03:25:43;;;;;;;;;;;;;;;6.53;75.44;96879.88;4436784;32;33507;-92
2023/12/22 03:28:15;;;;;;;;;;;;;;;6.18;76.30;96893.03;4418671;32;33734;-93
2023/12/22 03:30:43;;;;;;;;;;;;;;;6.39;75.69;96904.03;4424298;32;33881;-95
2023/12/22 03:33:10;;;;;;;;;;;;;;;5.90;76.42;96909.44;4411201;32;34784;-95
2023/12/22 03:35:37;;;;;;;;;;;;;;;6.33;75.11;96921.22;4424932;32;33593;-95
2023/12/22 03:38:30;;;;;;;;;;;;;;;6.27;74.78;96903.25;4425307;32;32932;-96
2023/12/22 03:40:57;;;;;;;;;;;;;;;5.95;75.25;96900.88;4415629;32;33564;-95
2023/12/22 03:43:45;;;;;;;;;;;;;;;6.25;73.17;96893.81;4410818;32;34035;-95
2023/12/22 03:46:16;;;;;;;;;;;;;;;6.22;71.25;96884.41;4410339;32;33266;-91
2023/12/22 03:48:44;;;;;;;;;;;;;;;5.95;70.54;96876.87;4407220;32;32859;-93
2023/12/22 03:51:13;;;;;;;;;;;;;;;6.27;68.88;96887.81;4395846;32;34429;-90
2023/12/22 03:53:40;;;;;;;;;;;;;;;6.13;69.56;96892.19;4422566;32;33695;-95
2023/12/22 03:56:09;;;;;;;;;;;;;;;5.82;69.10;96897.47;4419469;32;34232;-93
2023/12/22 03:58:36;;;;;;;;;;;;;;;5.94;69.18;96906.00;4407394;32;34887;-93
2023/12/22 04:01:04;;;;;;;;;;;;;;;5.91;69.01;96913.69;4412155;32;33309;-95
2023/12/22 04:03:33;;;;;;;;;;;;;;;5.62;70.18;96912.13;4407375;32;34258;-92
2023/12/22 04:06:02;;;;;;;;;;;;;;;5.93;69.35;96912.03;4407309;32;33971;-96
2023/12/22 04:08:49;;;;;;;;;;;;;;;5.91;69.34;96919.72;4409112;32;33470;-94
2023/12/22 04:11:17;;;;;;;;;;;;;;;6.00;67.90;96924.00;4424737;32;33091;-94
2023/12/22 04:13:44;;;;;;;;;;;;;;;5.88;67.60;96924.88;4433029;32;34439;-93
2023/12/22 04:16:31;;;;;;;;;;;;;;;6.21;66.65;96908.44;4412011;32;32294;-92
2023/12/22 04:19:00;;;;;;;;;;;;;;;6.37;66.13;96919.47;4419086;32;34595;-91
2023/12/22 04:21:48;;;;;;;;;;;;;;;5.93;67.40;96923.16;4424909;32;33433;-93
2023/12/22 04:24:15;;;;;;;;;;;;;;;6.14;66.34;96929.91;4408513;32;34049;-92
2023/12/22 04:26:42;;;;;;;;;;;;;;;6.15;65.98;96957.34;4409190;32;33930;-95
2023/12/22 04:29:30;;;;;;;;;;;;;;;5.86;67.07;96960.87;4412814;32;33661;-95
2023/12/22 04:32:17;;;;;;;;;;;;;;;6.15;66.55;96941.06;4393180;32;34093;-92
2023/12/22 04:34:45;;;;;;;;;;;;;;;6.20;66.68;96947.88;4409681;32;33996;-92
2023/12/22 04:37:12;;;;;;;;;;;;;;;6.24;66.30;96939.28;4422797;32;32988;-91
2023/12/22 04:39:40;;;;;;;;;;;;;;;6.40;65.83;96939.19;4421270;32;33109;-93
2023/12/22 04:42:07;;;;;;;;;;;;;;;6.15;66.42;96943.63;4433360;32;34831;-92
2023/12/22 04:44:35;;;;;;;;;;;;;;;6.22;66.50;96941.03;4422075;32;33038;-91
2023/12/22 04:47:12;;;;;;;;;;;;;;;5.86;66.92;96940.28;4430522;32;33531;-91
2023/12/22 04:49:40;;;;;;;;;;;;;;;5.67;68.32;96956.66;4420327;32;32803;-96
2023/12/22 04:52:10;;;;;;;;;;;;;;;5.66;67.25;96934.38;4406789;32;34066;-92
2023/12/22 04:54:37;;;;;;;;;;;;;;;5.97;64.61;96955.72;4406327;32;34534;-92
2023/12/22 04:57:06;;;;;;;;;;;;;;;5.72;65.97;96960.09;4419671;32;33108;-91
2023/12/22 04:59:33;;;;;;;;;;;;;;;5.71;65.98;96957.50;4404550;32;33091;-89
2023/12/22 05:02:00;;;;;;;;;;;;;;;6.01;64.44;96959.13;4409615;32;34137;-92
2023/12/22 05:04:43;;;;;;;;;;;;;;;6.37;63.18;96959.81;4412848;32;33221;-93
2023/12/22 05:07:11;;;;;;;;;;;;;;;6.25;63.69;96971.00;4430222;32;33741;-92
2023/12/22 05:09:58;;;;;;;;;;;;;;;6.66;62.93;96965.59;4410728;32;34904;-92
2023/12/22 05:12:26;;;;;;;;;;;;;;;6.99;62.19;96964.47;4409311;32;33284;-95
2023/12/22 05:14:54;;;;;;;;;;;;;;;6.51;64.07;96976.00;4408690;32;33527;-96
2023/12/22 05:17:50;;;;;;;;;;;;;;;6.83;62.37;96989.50;4420702;32;34214;-95
2023/12/22 05:20:34;;;;;;;;;;;;;;;6.77;62.84;97004.16;4424341;32;33871;-95
2023/12/22 05:23:22;;;;;;;;;;;;;;;6.60;63.27;97006.84;4410651;32;34392;-95
2023/12/22 05:25:51;;;;;;;;;;;;;;;6.07;64.48;97026.84;4409329;32;33378;-94
2023/12/22 05:28:38;;;;;;;;;;;;;;;5.67;65.27;97018.34;4417759;32;33220;-93
2023/12/22 05:31:15;;;;;;;;;;;;;;;6.19;63.60;97010.50;4410872;32;34835;-94
2023/12/22 05:33:47;;;;;;;;;;;;;;;6.05;62.95;97015.69;4434478;32;36036;-95
2023/12/22 05:36:14;;;;;;;;;;;;;;;6.06;62.58;97026.81;4406731;32;34241;-94
2023/12/22 05:38:41;;;;;;;;;;;;;;;5.70;63.79;97022.63;4422885;32;34481;-95
2023/12/22 05:41:09;;;;;;;;;;;;;;;6.14;62.53;97017.38;4427298;32;34839;-94
2023/12/22 05:43:36;;;;;;;;;;;;;;;6.34;61.36;97028.44;4429336;32;33552;-94
2023/12/22 05:46:13;;;;;;;;;;;;;;;5.73;62.90;97022.63;4423485;32;34028;-95
2023/12/22 05:48:40;;;;;;;;;;;;;;;6.12;61.39;97031.09;4427813;32;32386;-92
2023/12/22 05:51:13;;;;;;;;;;;;;;;6.11;61.57;97025.12;4437549;32;33709;-94
2023/12/22 05:53:49;;;;;;;;;;;;;;;5.68;62.52;97040.62;4413511;32;34756;-94
2023/12/22 05:56:17;;;;;;;;;;;;;;;5.35;62.89;97031.28;4409715;32;33665;-93
2023/12/22 05:58:45;;;;;;;;;;;;;;;5.70;61.72;97049.19;4408867;32;32502;-92
2023/12/22 06:01:16;;;;;;;;;;;;;;;6.02;60.54;97056.88;4423669;32;34963;-92
2023/12/22 06:03:47;;;;;;;;;;;;;;;6.17;58.75;97055.94;4423520;32;35339;-93
2023/12/22 06:06:14;;;;;;;;;;;;;;;5.70;60.77;97059.47;4426939;32;35049;-92
2023/12/22 06:08:41;;;;;;;;;;;;;;;6.02;59.98;97050.84;4420457;32;32282;-93
2023/12/22 06:11:29;;;;;;;;;;;;;;;5.81;59.71;97056.91;4411058;32;33268;-91
2023/12/22 06:13:56;;;;;;;;;;;;;;;5.85;59.84;97072.31;4407860;32;34325;-92
2023/12/22 06:16:24;;;;;;;;;;;;;;;5.28;60.42;97081.78;4404054;32;33159;-93
2023/12/22 06:18:51;;;;;;;;;;;;;;;5.62;59.39;97076.63;4410580;32;33935;-92
2023/12/22 06:21:19;;;;;;;;;;;;;;;5.76;59.29;97092.91;4409803;32;32859;-91
2023/12/22 06:23:46;;;;;;;;;;;;;;;4.81;61.26;97102.28;4412037;32;34237;-93
2023/12/22 06:26:13;;;;;;;;;;;;;;;4.79;61.23;97107.41;4420566;32;35104;-93
2023/12/22 06:28:41;;;;;;;;;;;;;;;4.90;61.12;97119.44;4404263;32;33392;-92
2023/12/22 06:31:10;;;;;;;;;;;;;;;5.40;59.70;97116.06;4401281;32;34124;-92
2023/12/22 06:33:38;;;;;;;;;;;;;;;5.13;60.64;97123.75;4420529;32;34953;-92
2023/12/22 06:36:05;;;;;;;;;;;;;;;4.97;60.78;97127.16;4408840;32;34434;-92
2023/12/22 06:38:32;;;;;;;;;;;;;;;5.32;60.23;97114.34;4407111;32;32965;-92
2023/12/22 06:41:00;;;;;;;;;;;;;;;5.83;58.46;97112.63;4420273;32;34095;-91
2023/12/22 06:43:28;;;;;;;;;;;;;;;5.79;58.85;97116.03;4407491;32;33066;-92
2023/12/22 06:45:55;;;;;;;;;;;;;;;5.66;58.51;97114.34;4420754;32;34442;-93
2023/12/22 06:48:22;;;;;;;;;;;;;;;5.71;59.36;97114.31;4430170;32;33475;-93
2023/12/22 06:50:50;;;;;;;;;;;;;;;5.67;58.22;97102.34;4395546;32;34297;-93
2023/12/22 06:53:37;;;;;;;;;;;;;;;5.57;57.46;97109.22;4421634;32;33555;-93
2023/12/22 06:56:14;;;;;;;;;;;;;;;5.37;58.41;97112.63;4422071;32;34099;-92
2023/12/22 06:58:42;;;;;;;;;;;;;;;5.28;58.07;97106.63;4405882;32;32740;-92
2023/12/22 07:01:09;;;;;;;;;;;;;;;5.08;58.71;97119.47;4415568;32;34019;-92
2023/12/22 07:03:37;;;;;;;;;;;;;;;5.32;58.24;97124.62;4420380;32;33005;-93
2023/12/22 07:06:06;;;;;;;;;;;;;;;5.35;57.00;97119.47;4411554;32;34379;-93
2023/12/22 07:08:34;;;;;;;;;;;;;;;5.10;57.40;97126.28;4420419;32;33395;-94
2023/12/22 07:11:01;;;;;;;;;;;;;;;5.57;56.50;97119.50;4430354;32;33988;-94
2023/12/22 07:13:30;;;;;;;;;;;;;;;5.35;56.73;97136.63;4415869;32;34134;-93
2023/12/22 07:16:06;;;;;;;;;;;;;;;5.49;56.88;97127.22;4421805;32;34210;-93
2023/12/22 07:18:37;;;;;;;;;;;;;;;5.48;58.02;97129.75;4423552;32;32383;-93
2023/12/22 07:21:04;;;;;;;;;;;;;;;5.33;58.56;97141.75;4409642;32;32884;-92
2023/12/22 07:23:31;;;;;;;;;;;;;;;5.46;57.00;97128.91;4408916;32;33615;-92
2023/12/22 07:25:59;;;;;;;;;;;;;;;5.33;57.19;97135.75;4413595;32;33547;-92
2023/12/22 07:28:26;;;;;;;;;;;;;;;5.53;57.38;97122.91;4411819;32;32636;-92
2023/12/22 07:30:55;;;;;;;;;;;;;;;5.80;57.61;97116.91;4407891;32;34046;-92
2023/12/22 07:33:22;;;;;;;;;;;;;;;5.85;57.48;97110.03;4409013;32;33537;-91
2023/12/22 07:35:50;;;;;;;;;;;;;;;5.53;57.46;97102.34;4408144;32;34061;-93
2023/12/22 07:38:17;;;;;;;;;;;;;;;5.61;57.49;97110.91;4428511;32;32791;-93
2023/12/22 07:40:45;;;;;;;;;;;;;;;5.48;58.23;97119.47;4410752;32;32706;-92
2023/12/22 07:43:13;;;;;;;;;;;;;;;5.80;57.77;97124.62;4422757;32;34702;-91
2023/12/22 07:45:40;;;;;;;;;;;;;;;5.79;57.90;97126.31;4411084;32;33122;-89
2023/12/22 07:48:08;;;;;;;;;;;;;;;5.68;58.27;97128.03;4418198;32;33464;-88
2023/12/22 07:50:36;;;;;;;;;;;;;;;5.25;59.80;97129.75;4416194;32;98227;-90
2023/12/22 07:53:08;;;;;;;;;;;;;;;5.80;58.71;97133.19;4435174;32;33368;-88
2023/12/22 07:55:38;;;;;;;;;;;;;;;5.95;58.79;97128.91;4429321;32;33378;-90
2023/12/22 07:58:05;;;;;;;;;;;;;;;5.51;59.31;97128.03;4407118;32;32649;-90
2023/12/22 08:00:33;;;;;;;;;;;;;;;5.72;59.51;97145.19;4419665;32;35135;-90
2023/12/22 08:03:00;;;;;;;;;;;;;;;5.72;59.27;97145.19;4420924;32;33810;-91
2023/12/22 08:05:29;;;;;;;;;;;;;;;5.91;59.03;97156.31;4422888;32;33267;-86
2023/12/22 08:07:57;;;;;;;;;;;;;;;5.47;60.64;97159.75;4422689;32;32954;-85
2023/12/22 08:10:24;;;;;;;;;;;;;;;5.71;60.02;97152.88;4414482;32;33450;-91
2023/12/22 08:12:51;;;;;;;;;;;;;;;5.81;59.38;97146.88;4409860;32;33059;-94
2023/12/22 08:15:19;;;;;;;;;;;;;;;5.94;59.57;97158.91;4408613;32;33407;-89
2023/12/22 08:17:59;;;;;;;;;;;;;;;5.77;59.96;97152.91;4439390;32;33521;-93
2023/12/22 08:20:44;;;;;;;;;;;;;;;5.75;59.80;97140.03;4438819;32;34612;-89
2023/12/22 08:23:15;;;;;;;;;;;;;;;6.10;58.69;97141.75;4421918;32;33282;-90
2023/12/22 08:25:44;;;;;;;;;;;;;;;5.53;60.52;97146.03;4410103;32;34404;-93
2023/12/22 08:28:31;;;;;;;;;;;;;;;5.93;60.06;97148.63;4420284;32;35466;-94
2023/12/22 08:30:58;;;;;;;;;;;;;;;5.70;60.28;97151.19;4420377;32;34124;-92
2023/12/22 08:33:26;;;;;;;;;;;;;;;6.37;58.63;97137.38;4394334;32;33225;-92
2023/12/22 08:36:03;;;;;;;;;;;;;;;5.98;59.89;97150.31;4408675;32;34308;-94
2023/12/22 08:38:52;;;;;;;;;;;;;;;6.07;59.64;97150.31;4420231;32;34326;-93
2023/12/22 08:41:21;;;;;;;;;;;;;;;5.52;60.73;97167.44;4405490;32;33798;-94
2023/12/22 08:43:48;;;;;;;;;;;;;;;6.14;59.66;97163.16;4414390;32;33882;-91
2023/12/22 08:46:16;;;;;;;;;;;;;;;6.12;59.29;97159.75;4406824;32;34334;-91
2023/12/22 08:48:43;;;;;;;;;;;;;;;5.94;60.22;97163.19;4435421;32;33600;-91
2023/12/22 08:51:11;;;;;;;;;;;;;;;6.36;58.74;97157.09;4434047;32;33764;-90
2023/12/22 08:53:39;;;;;;;;;;;;;;;5.90;60.01;97170.00;4406333;32;34710;-90
2023/12/22 08:56:08;;;;;;;;;;;;;;;6.19;59.69;97170.00;4393337;32;33499;-94
2023/12/22 08:58:35;;;;;;;;;;;;;;;6.64;57.60;97178.47;4401520;32;32947;-90
2023/12/22 09:01:02;;;;;;;;;;;;;;;7.03;56.88;97185.16;4420419;32;34143;-90
2023/12/22 09:03:33;;;;;;;;;;;;;;;6.81;58.51;97194.69;4419470;32;34397;-90
2023/12/22 09:06:00;;;;;;;;;;;;;;;7.04;57.06;97196.31;4406387;32;33677;-91
2023/12/22 09:08:27;;;;;;;;;;;;;;;6.61;58.03;97185.34;4392549;32;32663;-90
2023/12/22 09:10:55;;;;;;;;;;;;;;;6.78;57.60;97189.59;4407721;32;34333;-89
2023/12/22 09:13:24;;;;;;;;;;;;;;;6.76;57.22;97173.25;4420807;32;34233;-89
2023/12/22 09:15:52;;;;;;;;;;;;;;;6.75;56.76;97189.59;4417464;32;34375;-90
2023/12/22 09:18:19;;;;;;;;;;;;;;;6.77;56.17;97179.28;4419442;32;33616;-90
2023/12/22 09:20:48;;;;;;;;;;;;;;;6.65;56.93;97181.91;4421032;32;33732;-91
2023/12/22 09:23:15;;;;;;;;;;;;;;;6.76;55.89;97177.56;4409629;32;35148;-89
2023/12/22 09:25:43;;;;;;;;;;;;;;;6.57;56.23;97185.34;4416453;32;32836;-90
2023/12/22 09:28:11;;;;;;;;;;;;;;;6.36;57.02;97182.81;4421908;32;33217;-90
2023/12/22 09:30:38;;;;;;;;;;;;;;;6.39;56.76;97172.53;4408351;32;33950;-90
2023/12/22 09:33:06;;;;;;;;;;;;;;;6.47;56.52;97162.22;4395049;32;32859;-92
2023/12/22 09:35:54;;;;;;;;;;;;;;;6.53;56.28;97172.50;4411637;32;33059;-91
2023/12/22 09:38:23;;;;;;;;;;;;;;;6.65;55.22;97175.03;4428424;32;32783;-91
2023/12/22 09:41:11;;;;;;;;;;;;;;;6.39;56.40;97175.09;4421834;32;33343;-93
2023/12/22 09:43:43;;;;;;;;;;;;;;;7.04;55.04;97184.28;4408525;32;34031;-92
2023/12/22 09:46:11;;;;;;;;;;;;;;;6.83;55.69;97177.53;4405409;32;34320;-95
2023/12/22 09:48:59;;;;;;;;;;;;;;;7.09;55.78;97189.44;4410038;32;33095;-94
2023/12/22 09:51:31;;;;;;;;;;;;;;;6.88;56.28;97189.53;4394801;32;34646;-95
2023/12/22 09:53:59;;;;;;;;;;;;;;;6.73;56.29;97193.88;4414119;32;35707;-94
2023/12/22 09:56:29;;;;;;;;;;;;;;;6.72;56.87;97178.44;4407566;32;33336;-92
2023/12/22 09:58:57;;;;;;;;;;;;;;;6.93;55.97;97183.50;4410077;32;31742;-88
2023/12/22 10:01:25;;;;;;;;;;;;;;;6.88;55.66;97163.78;4405552;32;32651;-90
2023/12/22 10:03:52;;;;;;;;;;;;;;;6.92;56.19;97166.31;4399157;32;33717;-92
2023/12/22 10:06:20;;;;;;;;;;;;;;;6.71;56.59;97175.00;4431708;32;33534;-90
2023/12/22 10:08:50;;;;;;;;;;;;;;;6.98;56.64;97180.91;4396574;32;33740;-89
2023/12/22 10:11:19;;;;;;;;;;;;;;;6.84;56.36;97178.38;4408994;32;34387;-89
2023/12/22 10:13:46;;;;;;;;;;;;;;;6.94;56.10;97164.59;4401033;32;33897;-90
2023/12/22 10:16:13;;;;;;;;;;;;;;;6.88;56.55;97158.63;4412032;32;33301;-88
2023/12/22 10:18:42;;;;;;;;;;;;;;;7.16;55.80;97167.94;4399108;32;32418;-92
2023/12/22 10:21:11;;;;;;;;;;;;;;;7.51;55.04;97192.62;4403125;32;33331;-91
2023/12/22 10:23:39;;;;;;;;;;;;;;;7.20;56.12;97173.91;4422365;32;33998;-90
2023/12/22 10:26:08;;;;;;;;;;;;;;;7.30;55.52;97153.22;4400047;32;34010;-95
2023/12/22 10:28:52;;;;;;;;;;;;;;;6.83;56.68;97156.94;4412523;32;33936;-93
2023/12/22 10:31:21;;;;;;;;;;;;;;;6.73;56.38;97162.12;4426782;32;34071;-92
2023/12/22 10:33:48;;;;;;;;;;;;;;;7.28;55.44;97157.53;4395299;32;33839;-89
2023/12/22 10:36:16;;;;;;;;;;;;;;;7.03;55.50;97149.09;4407517;32;34094;-92
2023/12/22 10:38:44;;;;;;;;;;;;;;;7.14;55.46;97136.16;4403631;32;33329;-93
2023/12/22 10:41:12;;;;;;;;;;;;;;;7.15;55.03;97108.66;4415368;32;33690;-93
2023/12/22 10:43:39;;;;;;;;;;;;;;;7.45;55.22;97111.00;4415634;32;33304;-92
2023/12/22 10:46:08;;;;;;;;;;;;;;;7.24;55.01;97122.34;4399476;32;34038;-93
2023/12/22 10:48:43;;;;;;;;;;;;;;;7.43;54.96;97132.53;4411336;32;33313;-94
2023/12/22 10:51:14;;;;;;;;;;;;;;;7.16;55.25;97124.12;4392812;32;33256;-91
2023/12/22 10:53:42;;;;;;;;;;;;;;;7.26;54.85;97124.91;4413060;32;34371;-91
2023/12/22 10:56:10;;;;;;;;;;;;;;;7.14;55.40;97115.53;4423464;32;34889;-92
2023/12/22 10:58:49;;;;;;;;;;;;;;;6.95;54.73;97111.34;4437134;32;33940;-91
2023/12/22 11:01:16;;;;;;;;;;;;;;;7.23;54.13;97120.59;4422794;32;32957;-93
2023/12/22 11:03:44;;;;;;;;;;;;;;;7.02;54.59;97125.91;4411602;32;33596;-91
2023/12/22 11:06:12;;;;;;;;;;;;;;;6.93;54.13;97120.81;4431547;32;35551;-92
2023/12/22 11:08:39;;;;;;;;;;;;;;;6.78;55.13;97129.47;4406767;32;33320;-93
2023/12/22 11:11:10;;;;;;;;;;;;;;;7.14;55.27;97137.88;4427937;32;33708;-92
2023/12/22 11:13:38;;;;;;;;;;;;;;;6.99;55.09;97142.25;4431654;32;34788;-92
2023/12/22 11:16:06;;;;;;;;;;;;;;;6.79;55.56;97139.78;4419153;32;34206;-92
2023/12/22 11:18:41;;;;;;;;;;;;;;;7.01;55.04;97139.69;4435277;32;34456;-94
2023/12/22 11:21:08;;;;;;;;;;;;;;;7.09;54.59;97145.63;4425065;32;34102;-93
2023/12/22 11:23:35;;;;;;;;;;;;;;;7.26;54.84;97140.34;4432341;32;33677;-96
2023/12/22 11:26:07;;;;;;;;;;;;;;;7.39;53.67;97146.31;4408655;32;33067;-92
2023/12/22 11:28:38;;;;;;;;;;;;;;;7.11;53.85;97140.47;4403816;32;32288;-92
2023/12/22 11:31:07;;;;;;;;;;;;;;;7.40;53.40;97140.28;4418375;32;33239;-94
2023/12/22 11:33:34;;;;;;;;;;;;;;;6.86;54.94;97142.31;4425043;32;33666;-95
2023/12/22 11:36:12;;;;;;;;;;;;;;;6.95;55.06;97150.84;4433629;32;34686;-95
2023/12/22 11:38:40;;;;;;;;;;;;;;;7.40;54.13;97135.97;4432996;32;34220;-96
2023/12/22 11:41:10;;;;;;;;;;;;;;;6.97;53.87;97153.41;4411038;32;33792;-95
2023/12/22 11:43:41;;;;;;;;;;;;;;;7.10;53.61;97155.06;4420649;32;34148;-95
2023/12/22 11:46:10;;;;;;;;;;;;;;;7.02;52.93;97164.56;4411282;32;33411;-94
2023/12/22 11:48:39;;;;;;;;;;;;;;;7.04;53.54;97149.94;4424578;32;33341;-93
2023/12/22 11:51:17;;;;;;;;;;;;;;;7.24;52.99;97147.25;4429069;32;34721;-92
2023/12/22 11:53:48;;;;;;;;;;;;;;;7.51;52.69;97146.22;4420809;32;34061;-94
2023/12/22 11:56:20;;;;;;;;;;;;;;;7.77;51.79;97149.44;4425828;32;33386;-96
2023/12/22 11:58:58;;;;;;;;;;;;;;;7.58;52.11;97158.19;4422429;32;33620;-95
2023/12/22 12:01:29;;;;;;;;;;;;;;;7.49;53.25;97164.25;4413100;32;34848;-95
2023/12/22 12:04:06;;;;;;;;;;;;;;;7.47;51.98;97163.41;4438170;32;33867;-96
2023/12/22 12:06:36;;;;;;;;;;;;;;;7.28;53.26;97157.53;4439936;32;34200;-93
2023/12/22 12:09:44;;;;;;;;;;;;;;;7.05;53.63;97167.97;4423104;32;33440;-96
2023/12/22 12:12:28;;;;;;;;;;;;;;;7.38;53.74;97162.62;4423315;32;33973;-96
2023/12/22 12:15:24;;;;;;;;;;;;;;;7.32;52.92;97171.25;4423934;32;34203;-93
2023/12/22 12:17:55;;;;;;;;;;;;;;;7.73;52.82;97154.62;4423868;32;34009;-96
2023/12/22 12:20:25;;;;;;;;;;;;;;;7.66;52.21;97161.56;4409859;32;32128;-95
2023/12/22 12:26:02;;;;;;;;;;;;;;;7.74;52.05;97164.06;4444279;32;34634;-96
2023/12/22 12:29:03;;;;;;;;;;;;;;;7.44;51.83;97142.81;4435604;32;34753;-96
2023/12/22 12:31:37;;;;;;;;;;;;;;;7.51;51.92;97169.41;4443243;32;32823;-95
2023/12/22 12:34:05;;;;;;;;;;;;;;;7.62;52.41;97170.19;4429297;32;34565;-96
2023/12/22 12:36:40;;;;;;;;;;;;;;;7.62;51.83;97175.34;4433794;32;34365;-96
2023/12/22 12:39:14;;;;;;;;;;;;;;;7.14;52.81;97161.91;4443339;32;34802;-96
2023/12/22 12:41:44;;;;;;;;;;;;;;;7.00;53.61;97163.69;4450687;32;33146;-96
2023/12/22 12:44:11;;;;;;;;;;;;;;;7.21;53.29;97157.59;4436714;32;34801;-96
2023/12/22 12:46:49;;;;;;;;;;;;;;;7.49;52.97;97159.09;4436380;32;32947;-94
2023/12/22 12:49:40;;;;;;;;;;;;;;;7.46;53.61;97137.63;4446539;32;34633;-93
2023/12/22 12:52:13;;;;;;;;;;;;;;;7.16;53.98;97149.00;4432861;32;33902;-91
2023/12/22 12:57:35;;;;;;;;;;;;;;;7.00;56.63;97166.28;4441807;32;32941;-93
2023/12/22 13:00:23;;;;;;;;;;;;;;;7.12;56.03;97161.03;4439932;32;34038;-95
2023/12/22 13:02:59;;;;;;;;;;;;;;;6.72;56.24;97158.69;4436743;32;34086;-92
2023/12/22 13:05:52;;;;;;;;;;;;;;;6.80;55.43;97143.19;4439806;32;33307;-95
2023/12/22 13:08:37;;;;;;;;;;;;;;;6.72;56.41;97153.53;4440598;32;33758;-91
2023/12/22 13:11:25;;;;;;;;;;;;;;;7.21;54.88;97150.69;4433287;32;33101;-91
2023/12/22 13:13:53;;;;;;;;;;;;;;;7.37;53.12;97150.59;4444045;32;34331;-90
2023/12/22 13:16:21;;;;;;;;;;;;;;;7.15;54.13;97155.03;4435815;32;33172;-88
2023/12/22 13:19:07;;;;;;;;;;;;;;;7.00;53.50;97168.84;4438295;32;35737;-95
2023/12/22 13:21:36;;;;;;;;;;;;;;;7.42;52.69;97151.41;4439204;32;34882;-95
2023/12/22 13:27:29;;;;;;;;;;;;;;;7.17;53.31;97156.75;4435468;32;32881;-92
2023/12/22 13:30:12;;;;;;;;;;;;;;;7.15;53.02;97157.59;4446357;32;33473;-89